Kenna, NM (88122)

4:50 PM MDT on May 21, 2019 (GMT -0600)
Melrose Gunnery Range | | Change Station
Active Advisory: High Wind Warning

Elev 4350 ft 34.30 °N, 103.80 °W | Updated 52 minutes ago

Clear
Clear
70 °F
Feels Like 70 °F
N
31
Wind Variable Wind from WNW
Gusts 40 mph

Today
High -- | Low -- °F
--% Chance of Precip.
Yesterday
High -- | Low -- °F
Precip. -- in
Pressure 29.47 in
Visibility 10.0 miles
Clouds Clear
Dew Point 22 °F
Humidity 16%
Rainfall 0.00 in
Snow Depth Not available.
5:50 AM 7:53 PM
Waning Gibbous, 90% visible
METAR K4MR 212158Z AUTO 29027G35KT 10SM CLR 21/M05 A2958 RMK AO2 PK WND 28046/13 SLP978 T02141053 $
Pressure 29.47 in
Visibility 10.0 miles
Clouds Clear
Dew Point 22 °F
Humidity 16%
Rainfall 0.00 in
Snow Depth Not available.
5:50 AM 7:53 PM
Waning Gibbous, 90% visible
METAR K4MR 212158Z AUTO 29027G35KT 10SM CLR 21/M05 A2958 RMK AO2 PK WND 28046/13 SLP978 T02141053 $

Get Your Daily Forecast Email!

Thanks for signing up!

Be on the lookout for a verification email in your inbox.

You'll start receiving severe weather alerts in your inbox..

×

10-Day Weather Forecast

Almanac

Astronomy

May. 21, 2019 Rise Set
Actual Time
Civil Twilight
Nautical Twilight
Astronomical Twilight
Moon
Length of Visible Light
Length of Day
Tomorrow will be .
, % of the Moon is Illuminated

Today's Extremes

State Highs State Lows

Community

WunderPhotos

Category 6

Welcome to Category 6. This is the collective home for Weather Underground's featured writeups by Dr. Jeff Masters (right), Bob Henson (left), Chris Burt, and other regular contributors.

Nearby

Air Quality

  Air Quality AQ Index Pollutant
Not available.

Snow Depth

Station Depth Elevation

Earthquake Activity

City Distance Mag. Time & Date
Minimum magnitude displayed is 2.5.

Coastal Water Temperatures

Place Temperature

Stations

Nearby Weather Stations

Station Location Temp. Windchill Dew Point Humidity Wind Precip. Elev Updated Type
                   

Watches & Warnings

High Wind Warning
Issued: 11:52 AM MDT May. 21, 2019 – National Weather Service

... High Wind Warning remains in effect until 7 PM MDT this
evening...

* location... much of east-central and northeast New Mexico.

* Winds... west winds of 35 to 45 mph with gusts between 55 and
65 mph.

* Timing... winds will peak in strength during the early afternoon
hours, and decrease early evening.

* Visibility... locally reduced in dust prone locations.

* Local impacts... take action to secure trash cans, lawn
furniture, and other loose or lightweight outdoor objects.
Dangerous cross winds can be expected on north to south oriented
roadways, especially for high profile vehicles. Westbound
drivers on I-40 will experience strong headwinds. Flimsy
structures may blow over.


Precautionary/preparedness actions...

Remember, a High Wind Warning means damaging winds are imminent
or highly likely. Sustained wind speeds of at least 40 mph or
gusts of 58 mph or more can lead to property damage.